Time;durP1;ratioP1;P1;durP2;ratioP2;P2;SDS_P1;SDS_P2;PMS_P1;PMS_P2;Temp;Humidity;BMP_temperature;BMP_pressure;BME280_temperature;BME280_humidity;BME280_pressure;Samples;Min_cycle;Max_cycle;Signal;HPM_P1;HPM_P2
2022/04/21 00:00:07;;;;;;;27.63;2.27;;;;;;;20.14;47.63;99058.69;7315400;19;158615;-37
2022/04/21 00:02:33;;;;;;;20.48;1.65;;;;;;;20.16;48.36;99069.84;7317220;19;129738;-39
2022/04/21 00:04:58;;;;;;;23.40;1.93;;;;;;;20.15;48.92;99063.78;7317563;19;129211;-37
2022/04/21 00:07:24;;;;;;;47.25;3.58;;;;;;;20.13;49.70;99064.88;7315596;19;130584;-41
2022/04/21 00:09:49;;;;;;;23.00;1.88;;;;;;;20.16;49.38;99059.41;7315671;19;130834;-39
2022/04/21 00:12:15;;;;;;;32.42;2.70;;;;;;;20.12;50.54;99066.66;7312871;19;129268;-39
2022/04/21 00:14:40;;;;;;;25.90;2.10;;;;;;;20.17;50.35;99063.66;7316511;19;129619;-40
2022/04/21 00:17:08;;;;;;;22.08;1.95;;;;;;;20.17;50.32;99063.66;7315426;19;136132;-41
2022/04/21 00:19:37;;;;;;;33.65;2.97;;;;;;;20.09;50.31;99055.69;7314384;19;129621;-41
2022/04/21 00:24:50;;;;;;;29.55;2.25;;;;;;;20.19;51.24;99064.34;7317392;19;129748;-38
2022/04/21 00:27:16;;;;;;;22.30;2.10;;;;;;;20.17;51.91;99061.88;7313292;19;159185;-39
2022/04/21 00:29:43;;;;;;;24.30;2.03;;;;;;;19.89;48.27;99056.72;7317014;19;129689;-36
2022/04/21 00:32:09;;;;;;;20.30;1.85;;;;;;;19.82;48.09;99055.63;7315939;19;129102;-42
2022/04/21 00:34:34;;;;;;;21.65;1.75;;;;;;;19.75;48.33;99042.31;7315736;19;153058;-41
2022/04/21 00:37:00;;;;;;;31.63;2.72;;;;;;;19.84;47.66;99053.69;7314832;19;129412;-39
2022/04/21 00:39:25;;;;;;;24.17;2.08;;;;;;;19.85;47.80;99052.75;7315706;19;129659;-42
2022/04/21 00:42:01;;;;;;;37.50;3.10;;;;;;;19.88;47.67;99053.31;7312052;19;129344;-42
2022/04/21 00:44:28;;;;;;;20.40;1.77;;;;;;;19.88;47.28;99047.25;7316231;19;130618;-38
2022/04/21 00:46:55;;;;;;;;;;;;;;;19.90;47.71;99050.56;7315905;19;130227;-41
2022/04/21 00:49:21;;;;;;;27.75;2.33;;;;;;;19.91;47.72;99042.56;7315717;19;130489;-40
2022/04/21 00:51:47;;;;;;;31.13;2.57;;;;;;;19.93;47.46;99045.03;7313906;19;129796;-38
2022/04/21 00:54:13;;;;;;;41.17;3.05;;;;;;;19.87;47.18;99029.94;7315597;19;128880;-40
2022/04/21 00:56:41;;;;;;;20.50;1.83;;;;;;;19.99;46.88;99040.06;7315442;19;130172;-38
2022/04/21 00:59:07;;;;;;;25.67;2.20;;;;;;;20.02;46.85;99036.34;7316659;19;129391;-42
2022/04/21 01:04:18;;;;;;;31.25;2.45;;;;;;;20.15;50.68;99034.25;7313856;19;129915;-41
2022/04/21 01:06:43;;;;;;;18.92;1.95;;;;;;;19.93;49.22;99030.19;7314216;19;130983;-40
2022/04/21 01:09:09;;;;;;;21.63;1.80;;;;;;;19.88;48.59;99031.59;7311871;19;159035;-39
2022/04/21 01:11:34;;;;;;;44.65;3.50;;;;;;;19.93;47.76;99034.59;7312938;19;129727;-39
2022/04/21 01:14:00;;;;;;;19.55;1.60;;;;;;;19.91;47.60;99026.94;7316588;19;129257;-39
2022/04/21 01:16:25;;;;;;;20.85;1.73;;;;;;;19.96;47.49;99029.09;7314984;19;129098;-38
2022/04/21 01:18:51;;;;;;;25.77;2.17;;;;;;;19.94;47.46;99025.81;7313839;19;158529;-38
2022/04/21 01:21:16;;;;;;;28.33;2.47;;;;;;;19.98;47.14;99024.56;7313364;19;129016;-42
2022/04/21 01:23:41;;;;;;;24.35;2.08;;;;;;;20.03;47.33;99019.75;7313815;19;154052;-39
2022/04/21 01:26:07;;;;;;;25.60;2.00;;;;;;;19.99;47.55;99018.38;7313145;19;158688;-40
2022/04/21 01:28:32;;;;;;;24.33;1.88;;;;;;;19.92;47.24;99006.84;7313550;19;129626;-42
2022/04/21 01:30:58;;;;;;;31.58;2.45;;;;;;;20.05;47.21;99007.34;7312719;19;131537;-41
2022/04/21 01:33:24;;;;;;;32.88;2.65;;;;;;;20.04;47.12;99013.53;7315181;19;130101;-40
2022/04/21 01:35:50;;;;;;;21.63;1.75;;;;;;;20.24;47.31;99017.75;7314680;19;130621;-41
2022/04/21 01:41:11;;;;;;;26.05;2.03;;;;;;;20.15;49.39;99002.94;7314958;19;129184;-42
2022/04/21 01:43:43;;;;;;;37.08;2.97;;;;;;;20.17;50.22;99012.28;7314299;19;129506;-39
2022/04/21 01:46:09;;;;;;;20.13;1.83;;;;;;;20.17;50.38;99011.44;7314572;19;130900;-41
2022/04/21 01:48:35;;;;;;;24.00;2.08;;;;;;;20.15;50.51;99005.56;7314457;19;129158;-41
2022/04/21 01:51:00;;;;;;;20.40;1.67;;;;;;;20.14;50.52;99006.50;7313834;19;130589;-40
2022/04/21 01:53:25;;;;;;;21.67;1.87;;;;;;;20.21;50.66;99012.81;7313369;19;155100;-39
2022/04/21 01:55:51;;;;;;;21.77;1.80;;;;;;;20.21;50.66;99012.81;7312372;19;158508;-41
2022/04/21 01:58:16;;;;;;;33.63;2.63;;;;;;;20.20;50.61;99004.16;7314357;19;129850;-39
2022/04/21 02:00:42;;;;;;;20.47;1.70;;;;;;;20.10;50.79;98981.66;7311765;19;153978;-38
2022/04/21 02:03:07;;;;;;;21.03;1.70;;;;;;;20.24;49.87;98999.47;7312431;19;152799;-39
2022/04/21 02:05:33;;;;;;;44.13;3.83;;;;;;;20.23;51.16;98995.25;7311346;19;158141;-42
2022/04/21 02:08:00;;;;;;;16.60;1.53;;;;;;;19.94;48.84;98997.09;7312620;19;129509;-41
2022/04/21 02:10:25;;;;;;;30.38;2.63;;;;;;;19.83;48.19;98998.13;7312548;19;130464;-38
2022/04/21 02:12:51;;;;;;;25.48;2.03;;;;;;;19.86;48.07;99007.44;7314442;19;129452;-39
2022/04/21 02:15:19;;;;;;;47.57;4.43;;;;;;;19.89;48.07;99001.94;7311883;19;129897;-41
2022/04/21 02:17:45;;;;;;;31.80;2.47;;;;;;;19.89;48.04;98992.31;7313850;19;129271;-39
2022/04/21 02:20:15;;;;;;;16.93;1.63;;;;;;;19.94;47.76;98994.50;7313720;19;129242;-38
2022/04/21 02:22:41;;;;;;;39.15;3.08;;;;;;;19.94;47.44;98994.50;7313940;19;129347;-41
2022/04/21 02:25:09;;;;;;;23.13;1.97;;;;;;;19.94;47.68;99000.53;7314194;19;129158;-41
2022/04/21 02:27:36;;;;;;;26.48;2.00;;;;;;;19.96;47.46;99001.22;7312914;19;131008;-39
2022/04/21 02:30:02;;;;;;;;;;;;;;;19.96;47.13;98996.00;7313542;19;129498;-42
2022/04/21 02:32:27;;;;;;;24.83;2.08;;;;;;;20.02;49.91;98997.22;7314823;19;129347;-39
2022/04/21 02:34:55;;;;;;;12.50;1.40;;;;;;;20.03;49.82;98993.66;7311814;19;157515;-40
2022/04/21 02:37:21;;;;;;;30.05;2.58;;;;;;;19.90;48.28;98995.78;7312016;19;129355;-40
2022/04/21 02:39:48;;;;;;;23.15;2.08;;;;;;;19.91;47.95;98992.19;7312263;19;129780;-39
2022/04/21 02:42:14;;;;;;;;;;;;;;;19.89;48.23;98994.94;7313603;19;129667;-41
2022/04/21 02:44:39;;;;;;;20.60;1.63;;;;;;;19.95;47.98;98990.94;7311739;19;147707;-42
2022/04/21 02:47:06;;;;;;;21.33;1.75;;;;;;;19.96;47.47;98989.97;7311267;19;130987;-40
2022/04/21 02:49:32;;;;;;;10.43;1.23;;;;;;;19.97;47.02;98989.81;7308972;19;129609;-39
2022/04/21 02:51:58;;;;;;;29.10;2.45;;;;;;;19.97;47.83;98989.00;7309937;19;130058;-40
2022/04/21 02:57:20;;;;;;;30.92;2.35;;;;;;;20.01;47.26;98985.13;7311412;19;129626;-37
2022/04/21 02:59:46;;;;;;;29.90;2.35;;;;;;;20.01;46.83;98979.91;7312344;19;129424;-42
2022/04/21 03:02:12;;;;;;;25.58;2.28;;;;;;;20.03;47.59;98972.78;7313302;19;129593;-42
2022/04/21 03:04:37;;;;;;;20.05;1.83;;;;;;;20.15;47.94;98958.56;7312282;19;145250;-40
2022/04/21 03:07:02;;;;;;;18.45;1.70;;;;;;;20.13;48.64;98974.34;7312404;19;130833;-40
2022/04/21 03:09:28;;;;;;;36.83;2.70;;;;;;;20.15;49.29;98974.22;7308191;19;129072;-40
2022/04/21 03:11:53;;;;;;;22.70;1.98;;;;;;;20.16;49.62;98978.50;7310147;19;129369;-40
2022/04/21 03:14:19;;;;;;;33.47;2.87;;;;;;;20.19;50.06;98973.00;7308855;19;158806;-37
2022/04/21 03:16:45;;;;;;;28.23;2.35;;;;;;;20.19;50.97;98967.78;7310049;19;131341;-40
2022/04/21 03:19:10;;;;;;;21.35;2.05;;;;;;;20.24;49.76;98976.00;7312951;19;128941;-40
2022/04/21 03:24:19;;;;;;;26.50;2.22;;;;;;;20.22;50.94;98972.69;7312303;19;129124;-38
2022/04/21 03:26:45;;;;;;;35.65;2.83;;;;;;;20.18;50.12;98960.91;7305971;19;158813;-41
2022/04/21 03:29:10;;;;;;;21.08;1.88;;;;;;;20.24;50.30;98971.59;7309533;19;128989;-42
2022/04/21 03:31:36;;;;;;;50.63;3.95;;;;;;;20.22;50.86;98977.91;7307311;19;154020;-39
2022/04/21 03:34:05;;;;;;;14.25;1.38;;;;;;;20.22;51.38;98978.75;7310848;19;130575;-39
2022/04/21 03:36:31;;;;;;;23.50;1.92;;;;;;;19.90;48.61;98977.50;7309625;19;129355;-37
2022/04/21 03:38:56;;;;;;;25.40;2.27;;;;;;;19.89;48.35;98981.88;7311994;19;130017;-39
2022/04/21 03:41:22;;;;;;;27.58;2.33;;;;;;;19.89;48.08;98981.06;7310333;19;129868;-42
2022/04/21 03:43:47;;;;;;;30.27;2.75;;;;;;;19.93;47.59;98979.81;7307783;19;159017;-41
2022/04/21 03:46:12;;;;;;;28.35;2.35;;;;;;;19.93;47.65;98982.44;7308870;19;153610;-40
2022/04/21 03:48:38;;;;;;;26.25;1.98;;;;;;;19.95;48.06;98985.72;7307877;19;154429;-41
2022/04/21 03:51:03;;;;;;;23.98;1.95;;;;;;;19.95;47.77;98988.34;7309183;19;129982;-38
2022/04/21 03:53:28;;;;;;;24.35;2.13;;;;;;;19.97;47.95;98981.16;7310892;19;132284;-40
2022/04/21 03:55:53;;;;;;;33.17;2.63;;;;;;;20.14;50.78;98985.63;7307236;19;158440;-37
2022/04/21 03:58:19;;;;;;;34.47;2.97;;;;;;;19.90;48.74;98977.50;7309083;19;155159;-40
2022/04/21 04:00:44;;;;;;;17.13;1.67;;;;;;;19.88;48.37;98984.66;7307261;19;154960;-38
2022/04/21 04:03:09;;;;;;;21.00;1.80;;;;;;;19.91;48.80;98979.97;7307336;19;158500;-38
2022/04/21 04:05:34;;;;;;;34.28;2.80;;;;;;;19.99;48.05;98992.28;7308117;19;153306;-40
2022/04/21 04:10:52;;;;;;;38.85;3.47;;;;;;;19.95;47.59;98985.72;7307504;19;129122;-42
2022/04/21 04:13:19;;;;;;;25.40;2.20;;;;;;;19.99;47.52;98984.44;7309320;19;130297;-39
2022/04/21 04:15:48;;;;;;;26.00;2.10;;;;;;;20.00;47.48;98988.72;7307286;19;129299;-42
2022/04/21 04:18:14;;;;;;;51.22;4.45;;;;;;;19.92;47.13;98980.78;7306166;19;129776;-41
2022/04/21 04:20:39;;;;;;;23.13;1.95;;;;;;;20.03;47.18;98993.66;7306769;19;130296;-40
2022/04/21 04:23:04;;;;;;;33.17;2.60;;;;;;;20.08;50.88;98989.63;7308062;19;158331;-38
2022/04/21 04:25:29;;;;;;;35.97;3.05;;;;;;;19.94;48.77;98984.06;7306749;19;136355;-40
2022/04/21 04:27:55;;;;;;;14.60;1.47;;;;;;;19.92;48.30;98986.00;7308181;19;154518;-40
2022/04/21 04:30:20;;;;;;;31.77;2.87;;;;;;;19.95;47.86;98985.72;7306465;19;153989;-39
2022/04/21 04:32:45;;;;;;;53.28;4.30;;;;;;;19.96;47.98;98993.41;7308536;19;130163;-39
2022/04/21 04:35:10;;;;;;;46.30;4.00;;;;;;;19.99;48.33;98994.88;7304190;19;157973;-41
2022/04/21 04:37:36;;;;;;;34.33;3.07;;;;;;;19.88;47.37;98975.03;7306616;19;154167;-40
2022/04/21 04:40:01;;;;;;;20.73;1.83;;;;;;;20.01;47.91;98991.19;7313932;19;154637;-41
2022/04/21 04:42:28;;;;;;;22.75;2.15;;;;;;;20.05;47.71;98996.91;7312910;19;129175;-40
2022/04/21 04:46:34;;;;;;;29.58;2.58;;;;;;;20.05;47.09;99002.13;7317158;19;131040;-41
2022/04/21 04:47:39;;;;;;;34.25;3.03;;;;;;;20.10;46.95;99000.75;7313454;19;128998;-40
2022/04/21 04:50:06;;;;;;;26.05;2.30;;;;;;;20.08;47.49;99004.47;7315657;19;129024;-40
2022/04/21 04:52:32;;;;;;;23.58;2.05;;;;;;;20.28;47.33;99004.25;7316104;19;130648;-41
2022/04/21 04:54:57;;;;;;;12.17;1.50;;;;;;;20.20;48.92;99005.94;7315608;19;130915;-39
2022/04/21 04:57:23;;;;;;;22.45;2.22;;;;;;;20.20;48.71;99011.16;7315873;19;129111;-39
2022/04/21 04:59:48;;;;;;;28.63;2.70;;;;;;;20.22;50.06;99009.22;7313477;19;154119;-41
2022/04/21 05:02:14;;;;;;;37.72;3.15;;;;;;;20.22;50.01;99009.22;7310133;19;158488;-40
2022/04/21 05:04:39;;;;;;;41.47;3.63;;;;;;;20.22;50.87;99007.47;7313636;19;129135;-41
2022/04/21 05:07:05;;;;;;;39.25;3.58;;;;;;;20.24;49.90;99007.31;7312168;19;154645;-38
2022/04/21 05:09:30;;;;;;;29.25;2.70;;;;;;;20.25;50.21;99006.34;7311554;19;129768;-40
2022/04/21 05:11:55;;;;;;;35.90;3.35;;;;;;;20.23;50.83;99009.09;7310954;19;133804;-39
2022/04/21 05:14:22;;;;;;;29.33;2.72;;;;;;;20.24;50.68;99007.31;7315807;19;130313;-40
2022/04/21 05:16:48;;;;;;;26.85;2.42;;;;;;;20.24;50.34;99008.13;7312346;19;130115;-42
2022/04/21 05:19:15;;;;;;;28.80;2.77;;;;;;;20.23;51.20;99005.69;7314422;19;129566;-39
2022/04/21 05:21:42;;;;;;;25.60;2.35;;;;;;;20.23;50.42;99010.91;7312531;19;130253;-39
2022/04/21 05:24:10;;;;;;;28.50;2.20;;;;;;;19.97;48.41;98999.41;7314403;19;130830;-39
2022/04/21 05:26:37;;;;;;;36.13;3.10;;;;;;;19.79;48.65;98981.09;7314270;19;129246;-38
2022/04/21 05:30:55;;;;;;;18.05;1.60;;;;;;;19.85;47.75;98984.94;7314808;19;129097;-41
2022/04/21 05:31:55;;;;;;;53.72;4.45;;;;;;;19.95;48.24;98996.16;7311914;19;129877;-40
2022/04/21 05:34:22;;;;;;;24.75;2.08;;;;;;;19.95;47.65;98996.97;7314261;19;130318;-42
2022/04/21 05:36:47;;;;;;;27.13;2.42;;;;;;;19.97;47.80;98996.81;7312770;19;130247;-40
2022/04/21 05:39:13;;;;;;;45.70;3.63;;;;;;;19.97;47.73;98995.03;7310895;19;128945;-40
2022/04/21 05:41:38;;;;;;;23.90;2.17;;;;;;;19.99;47.17;98989.66;7311623;19;129506;-40
2022/04/21 05:44:06;;;;;;;42.30;3.33;;;;;;;20.01;47.65;98991.19;7313287;19;131097;-40
2022/04/21 05:46:31;;;;;;;20.10;1.80;;;;;;;20.01;47.74;98985.97;7314174;19;129977;-41
2022/04/21 05:48:57;;;;;;;42.63;3.33;;;;;;;20.02;47.23;98984.16;7312583;19;129147;-40
2022/04/21 05:51:23;;;;;;;34.67;3.05;;;;;;;20.24;47.67;98991.66;7294474;19;131750;-40
2022/04/21 05:53:49;;;;;;;27.33;2.33;;;;;;;20.17;48.56;98990.56;7300161;19;130842;-41
2022/04/21 05:56:15;;;;;;;11.75;1.27;;;;;;;20.19;49.17;98988.66;7310757;19;129778;-41
2022/04/21 05:58:41;;;;;;;25.10;2.13;;;;;;;20.20;49.78;98990.28;7313886;19;130988;-38
2022/04/21 06:01:08;;;;;;;20.92;1.77;;;;;;;20.24;49.34;98991.66;7308091;19;143135;-38
2022/04/21 06:03:34;;;;;;;37.53;3.03;;;;;;;20.12;49.46;98969.28;7313518;19;130762;-38
2022/04/21 06:06:00;;;;;;;;;;;;;;;20.28;51.01;98987.78;7314735;19;129009;-42
2022/04/21 06:08:25;;;;;;;34.50;3.10;;;;;;;20.26;50.33;98997.56;7311252;19;154114;-40
2022/04/21 06:10:50;;;;;;;22.20;2.10;;;;;;;20.18;50.43;98981.81;7310674;19;158202;-42
2022/04/21 06:13:16;;;;;;;32.25;3.08;;;;;;;20.24;50.99;98991.66;7312508;19;131166;-39
2022/04/21 06:15:42;;;;;;;33.58;3.05;;;;;;;20.15;50.99;98984.69;7312964;19;129556;-41
2022/04/21 06:18:08;;;;;;;;;;;;;;;20.29;52.16;98999.88;7315590;19;128794;-37
2022/04/21 06:20:35;;;;;;;24.33;2.10;;;;;;;20.02;49.00;98994.59;7311235;19;147150;-41
2022/04/21 06:23:00;;;;;;;13.90;1.48;;;;;;;19.90;48.46;98988.75;7314133;19;130806;-39
2022/04/21 06:25:26;;;;;;;32.47;2.70;;;;;;;19.91;47.87;98994.78;7312199;19;129591;-42
2022/04/21 06:27:52;;;;;;;49.13;4.05;;;;;;;19.92;47.69;98989.44;7311382;19;154078;-42
2022/04/21 06:30:18;;;;;;;46.95;3.85;;;;;;;19.94;47.48;98989.28;7309613;19;130208;-41
2022/04/21 06:32:43;;;;;;;26.27;2.13;;;;;;;19.93;47.96;98987.66;7313114;19;129345;-41
2022/04/21 06:35:08;;;;;;;18.30;1.63;;;;;;;19.94;47.22;98989.28;7310703;19;155429;-40
2022/04/21 06:37:35;;;;;;;23.77;2.20;;;;;;;19.94;47.48;98984.06;7312868;19;129464;-42
2022/04/21 06:40:01;;;;;;;23.27;2.13;;;;;;;19.97;47.31;98986.38;7311612;19;129063;-40
2022/04/21 06:42:26;;;;;;;24.48;2.13;;;;;;;19.92;47.49;98983.38;7312410;19;129396;-38
2022/04/21 06:50:19;;;;;;;31.52;2.63;;;;;;;20.16;49.38;98988.94;7312263;19;129624;-41
2022/04/21 06:52:44;;;;;;;43.92;3.72;;;;;;;20.18;49.98;98994.84;7310653;19;157620;-38
2022/04/21 06:55:09;;;;;;;25.00;2.33;;;;;;;20.07;49.94;98972.34;7311167;19;154078;-41
2022/04/21 06:57:35;;;;;;;25.80;2.13;;;;;;;20.17;50.69;98999.25;7310755;19;154617;-42
2022/04/21 07:00:00;;;;;;;26.85;2.30;;;;;;;20.19;50.70;98999.09;7309708;19;130082;-41
2022/04/21 07:02:32;;;;;;;28.98;2.42;;;;;;;20.19;50.95;99004.31;7311295;19;129240;-40
2022/04/21 07:05:05;;;;;;;34.28;3.03;;;;;;;20.18;51.26;98997.47;7307232;19;129684;-39
2022/04/21 07:07:31;;;;;;;36.10;3.10;;;;;;;20.24;50.63;98996.88;7309332;19;129173;-38
2022/04/21 07:09:57;;;;;;;30.08;2.50;;;;;;;20.20;50.77;99012.00;7305711;19;130282;-40
2022/04/21 07:12:29;;;;;;;29.58;2.50;;;;;;;20.20;51.82;99012.00;7310982;19;129502;-38
2022/04/21 07:14:59;;;;;;;25.27;2.25;;;;;;;20.08;49.00;99012.31;7312227;19;128845;-40
2022/04/21 07:17:25;;;;;;;27.92;2.35;;;;;;;19.91;48.23;99018.28;7311930;19;129834;-40
2022/04/21 07:19:50;;;;;;;27.20;2.45;;;;;;;19.90;48.75;99021.84;7311994;19;130706;-42
2022/04/21 07:22:18;;;;;;;32.60;2.83;;;;;;;19.93;47.91;99018.94;7306923;19;130900;-39
2022/04/21 07:24:43;;;;;;;17.88;1.63;;;;;;;19.87;47.72;99007.28;7313497;19;129576;-40
2022/04/21 07:27:08;;;;;;;24.35;2.00;;;;;;;19.96;47.82;99023.88;7306227;19;153962;-40
2022/04/21 07:29:34;;;;;;;35.30;3.13;;;;;;;19.94;47.23;99018.81;7305902;19;159128;-40
2022/04/21 07:31:59;;;;;;;25.50;2.00;;;;;;;19.98;47.25;99020.16;7303608;19;130398;-38
2022/04/21 07:34:25;;;;;;;26.02;2.05;;;;;;;19.99;47.77;99021.81;7305386;19;153432;-39
2022/04/21 07:36:50;;;;;;;35.45;3.15;;;;;;;19.99;47.23;99013.97;7308606;19;129047;-41
2022/04/21 07:39:15;;;;;;;34.17;2.80;;;;;;;19.99;47.61;99028.81;7305567;19;130424;-41
2022/04/21 07:41:41;;;;;;;49.30;3.63;;;;;;;20.25;47.47;99029.81;7306076;19;130806;-39
2022/04/21 07:44:07;;;;;;;19.42;1.52;;;;;;;20.05;48.69;99013.41;7308602;19;129221;-41
2022/04/21 07:46:32;;;;;;;29.27;2.33;;;;;;;20.13;49.18;99031.75;7306710;19;129528;-40
2022/04/21 07:51:42;;;;;;;25.52;2.20;;;;;;;20.17;50.37;99042.78;7306417;19;129407;-39
2022/04/21 07:54:07;;;;;;;24.75;1.92;;;;;;;20.20;50.45;99038.09;7305711;19;154499;-41
2022/04/21 07:56:32;;;;;;;50.97;3.75;;;;;;;20.10;50.73;99020.78;7308563;19;130298;-39
2022/04/21 07:58:57;;;;;;;29.53;2.47;;;;;;;20.23;50.10;99042.22;7300584;19;158688;-41
2022/04/21 08:01:23;;;;;;;48.93;3.90;;;;;;;20.22;50.96;99037.94;7301948;19;158494;-39
2022/04/21 08:03:48;;;;;;;28.63;2.63;;;;;;;20.22;51.43;99040.56;7306930;19;154515;-41
2022/04/21 08:06:14;;;;;;;26.15;2.40;;;;;;;20.21;51.06;99044.16;7304544;19;129503;-40
2022/04/21 08:08:42;;;;;;;52.58;3.83;;;;;;;20.23;50.71;99047.44;7304315;19;142634;-42
2022/04/21 08:11:07;;;;;;;24.67;2.00;;;;;;;20.06;49.45;99042.94;7304034;19;131289;-39
2022/04/21 08:13:33;;;;;;;27.38;2.22;;;;;;;19.85;49.02;99031.88;7308903;19;129827;-41
2022/04/21 08:15:59;;;;;;;48.60;4.13;;;;;;;19.87;48.46;99041.19;7313334;19;129220;-38
2022/04/21 08:18:24;;;;;;;26.33;2.43;;;;;;;19.96;48.04;99049.97;7310373;19;159304;-41
2022/04/21 08:20:53;;;;;;;55.78;4.30;;;;;;;19.92;47.85;99038.16;7306467;19;130587;-41
2022/04/21 08:23:18;;;;;;;26.27;2.38;;;;;;;20.06;47.64;99050.75;7317117;19;129120;-40
2022/04/21 08:33:55;;;;;;;27.27;2.45;;;;;;;20.02;47.08;99052.84;7314611;19;129161;-37
2022/04/21 08:36:20;;;;;;;21.95;2.05;;;;;;;20.04;47.68;99057.91;7312361;19;155165;-39
2022/04/21 08:38:47;;;;;;;69.37;5.27;;;;;;;20.34;47.12;99060.28;7311232;19;158179;-41
2022/04/21 08:41:17;;;;;;;25.38;2.40;;;;;;;20.20;48.92;99068.56;7312916;19;129748;-41
2022/04/21 08:43:46;;;;;;;25.65;2.60;;;;;;;20.17;49.37;99068.88;7313117;19;129227;-40
2022/04/21 08:46:17;;;;;;;51.38;3.97;;;;;;;20.20;50.20;99073.81;7312688;19;128996;-41
2022/04/21 08:48:47;;;;;;;13.15;1.63;;;;;;;20.18;51.22;99070.53;7312244;19;130719;-37
2022/04/21 08:51:13;;;;;;;30.30;2.65;;;;;;;20.19;50.42;99073.00;7311192;19;130327;-42
2022/04/21 08:53:40;;;;;;;40.70;3.10;;;;;;;20.07;50.61;99052.38;7309311;19;130024;-39
2022/04/21 08:56:06;;;;;;;27.40;2.53;;;;;;;20.20;51.80;99074.63;7314770;19;129709;-37
2022/04/21 08:58:31;;;;;;;36.22;2.80;;;;;;;20.10;51.22;99062.53;7313755;19;130878;-38
2022/04/21 09:00:57;;;;;;;17.67;1.60;;;;;;;20.18;51.44;99078.38;7312096;19;158501;-41
2022/04/21 09:03:23;;;;;;;11.80;1.30;;;;;;;20.16;51.61;99073.25;7313313;19;129264;-38
2022/04/21 09:05:48;;;;;;;48.75;3.67;;;;;;;20.17;51.56;99074.09;7314146;19;130307;-40
2022/04/21 09:08:25;;;;;;;97.22;8.65;;;;;;;20.17;52.13;99080.16;7307423;19;130591;-41
2022/04/21 09:11:04;;;;;;;28.07;2.53;;;;;;;20.00;48.99;99074.81;7306809;19;129286;-40
2022/04/21 09:13:33;;;;;;;36.30;3.13;;;;;;;19.86;48.75;99075.25;7306320;19;130495;-42
2022/04/21 09:16:06;;;;;;;30.25;2.63;;;;;;;19.86;48.17;99080.47;7314431;19;128914;-42
2022/04/21 09:18:46;;;;;;;31.45;2.92;;;;;;;19.91;48.45;99079.09;7308224;19;130486;-41
2022/04/21 09:21:14;;;;;;;33.05;3.05;;;;;;;19.95;48.70;99074.44;7310708;19;130732;-38
2022/04/21 09:23:41;;;;;;;37.42;3.00;;;;;;;19.94;47.99;99072.75;7309276;19;131139;-40
2022/04/21 09:26:12;;;;;;;19.45;1.83;;;;;;;19.97;47.81;99081.13;7309085;19;130199;-40
2022/04/21 09:28:38;;;;;;;106.53;8.77;;;;;;;19.99;47.45;99068.78;7306142;19;129756;-39
2022/04/21 09:31:06;;;;;;;34.65;3.10;;;;;;;19.99;47.73;99073.16;7311599;19;132638;-40
2022/04/21 09:33:33;;;;;;;29.20;2.50;;;;;;;19.98;47.35;99074.13;7310930;19;129241;-38
2022/04/21 09:36:00;;;;;;;;;;;;;;;19.99;47.86;99076.59;7312856;19;135906;-40
2022/04/21 09:38:26;;;;;;;25.00;2.38;;;;;;;20.19;48.01;99073.00;7310836;19;131710;-39
2022/04/21 09:40:51;;;;;;;24.67;2.17;;;;;;;20.13;48.90;99073.50;7311500;19;129820;-39
2022/04/21 09:43:29;;;;;;;67.15;4.88;;;;;;;20.13;50.79;99075.31;7311040;19;129457;-38
2022/04/21 09:46:09;;;;;;;;;;;;;;;20.18;51.08;99071.34;7312390;19;128895;-40
2022/04/21 09:48:35;;;;;;;10.38;1.15;;;;;;;20.18;50.86;99071.34;7311684;19;129735;-40
2022/04/21 09:51:17;;;;;;;44.63;3.60;;;;;;;20.18;51.52;99070.53;7308999;19;130384;-37
2022/04/21 09:54:02;;;;;;;31.95;2.97;;;;;;;20.21;51.24;99070.25;7312586;19;129506;-39
2022/04/21 09:56:31;;;;;;;29.30;2.78;;;;;;;20.19;51.43;99072.16;7313209;19;129474;-40
2022/04/21 09:59:00;;;;;;;31.83;2.85;;;;;;;20.10;50.96;99052.09;7310437;19;129291;-40
2022/04/21 10:01:26;;;;;;;42.67;3.50;;;;;;;20.17;51.41;99069.69;7309784;19;129414;-38
2022/04/21 10:03:52;;;;;;;21.67;2.03;;;;;;;20.17;51.79;99074.94;7312442;19;129138;-39
2022/04/21 10:06:17;;;;;;;42.10;3.80;;;;;;;20.15;50.46;99071.63;7310029;19;153834;-41
2022/04/21 10:08:44;;;;;;;41.58;3.33;;;;;;;19.78;48.99;99054.28;7309412;19;158448;-40
2022/04/21 10:11:10;;;;;;;29.02;2.63;;;;;;;19.86;48.33;99070.88;7309660;19;129468;-39
2022/04/21 10:13:35;;;;;;;48.85;4.18;;;;;;;19.88;48.31;99076.78;7311810;19;129036;-41
2022/04/21 10:16:01;;;;;;;23.20;2.13;;;;;;;19.89;48.25;99069.75;7312625;19;129041;-35
2022/04/21 10:18:27;;;;;;;11.30;1.15;;;;;;;19.93;47.93;99076.34;7311787;19;137486;-39
2022/04/21 10:20:55;;;;;;;50.77;4.00;;;;;;;19.92;47.51;99080.72;7310069;19;129248;-41
2022/04/21 10:23:22;;;;;;;29.05;2.53;;;;;;;19.92;47.96;99074.69;7313326;19;129387;-41
2022/04/21 10:25:59;;;;;;;32.28;2.80;;;;;;;19.93;47.39;99076.34;7311214;19;129547;-41
2022/04/21 10:28:34;;;;;;;62.15;5.03;;;;;;;19.98;47.78;99074.13;7311523;19;130299;-41
2022/04/21 10:31:29;;;;;;;22.25;2.13;;;;;;;19.96;47.42;99071.69;7309234;19;158091;-40
2022/04/21 10:33:57;;;;;;;27.83;2.30;;;;;;;19.97;47.70;99080.31;7312296;19;129246;-41
2022/04/21 10:36:33;;;;;;;23.77;2.22;;;;;;;20.03;47.02;99071.94;7309140;19;130011;-40
2022/04/21 10:39:18;;;;;;;38.80;3.03;;;;;;;20.16;47.62;99067.25;7308367;19;130868;-40
2022/04/21 10:41:47;;;;;;;45.38;3.53;;;;;;;20.15;48.28;99065.56;7308306;19;129152;-39
2022/04/21 10:44:13;;;;;;;43.03;3.28;;;;;;;20.11;49.05;99065.03;7307859;19;129633;-38
2022/04/21 10:46:39;;;;;;;44.25;3.67;;;;;;;20.15;49.42;99065.56;7307553;19;129108;-40
2022/04/21 10:49:04;;;;;;;21.02;1.67;;;;;;;20.17;49.79;99068.88;7310254;19;129177;-41
2022/04/21 10:51:42;;;;;;;48.33;3.90;;;;;;;20.20;50.66;99064.19;7303763;19;157463;-40
2022/04/21 10:59:50;;;;;;;27.35;2.38;;;;;;;20.20;51.06;99068.56;7311163;19;129098;-37
2022/04/21 11:02:15;;;;;;;28.95;2.55;;;;;;;20.19;50.55;99062.56;7311285;19;129555;-41
2022/04/21 11:04:40;;;;;;;25.70;2.38;;;;;;;20.17;50.70;99059.25;7308711;19;141067;-41
2022/04/21 11:07:11;;;;;;;24.25;2.05;;;;;;;20.19;51.39;99062.56;7310695;19;129146;-41
2022/04/21 11:09:48;;;;;;;29.05;2.75;;;;;;;19.98;48.66;99064.50;7307860;19;130569;-39
2022/04/21 11:12:16;;;;;;;36.58;2.97;;;;;;;19.88;48.92;99061.13;7309032;19;130671;-39
2022/04/21 11:14:42;;;;;;;35.45;2.92;;;;;;;19.88;49.00;99065.50;7311762;19;129816;-41
2022/04/21 11:17:08;;;;;;;17.83;1.63;;;;;;;19.89;48.58;99062.75;7307949;19;131265;-39
2022/04/21 11:19:49;;;;;;;31.10;2.57;;;;;;;19.90;48.20;99069.59;7309647;19;130584;-42
2022/04/21 11:22:36;;;;;;;39.22;3.35;;;;;;;19.93;48.12;99061.50;7309335;19;131147;-39
2022/04/21 11:25:03;;;;;;;17.70;1.65;;;;;;;19.96;47.98;99070.84;7311182;19;129446;-41
2022/04/21 11:27:29;;;;;;;24.95;2.20;;;;;;;19.97;47.62;99069.88;7309483;19;130834;-41
2022/04/21 11:30:04;;;;;;;47.00;3.60;;;;;;;19.99;47.19;99065.34;7307751;19;129770;-41
2022/04/21 11:32:29;;;;;;;24.25;2.20;;;;;;;19.90;47.43;99055.75;7311370;19;129306;-38
2022/04/21 11:35:03;;;;;;;11.65;1.15;;;;;;;19.99;47.60;99070.56;7309278;19;129077;-39
2022/04/21 11:37:57;;;;;;;48.53;3.60;;;;;;;19.97;47.13;99069.88;7307753;19;129447;-41
2022/04/21 11:40:28;;;;;;;69.50;5.20;;;;;;;20.00;47.75;99073.00;7306248;19;130715;-38
2022/04/21 11:42:56;;;;;;;23.63;2.45;;;;;;;20.09;47.68;99076.56;7309601;19;131254;-39
2022/04/21 11:45:24;;;;;;;43.20;3.90;;;;;;;20.21;48.04;99076.25;7308768;19;129578;-42
2022/04/21 11:47:49;;;;;;;43.10;3.40;;;;;;;20.12;49.04;99076.28;7306634;19;129312;-41
2022/04/21 11:50:26;;;;;;;26.15;2.30;;;;;;;20.12;50.32;99073.66;7307288;19;129015;-40
2022/04/21 11:52:52;;;;;;;42.25;3.55;;;;;;;20.20;49.76;99073.81;7307996;19;129439;-40
2022/04/21 11:55:19;;;;;;;62.85;5.25;;;;;;;20.20;50.18;99072.03;7309605;19;129395;-41
2022/04/21 11:57:45;;;;;;;28.45;2.63;;;;;;;20.16;49.91;99062.03;7309252;19;129058;-41